createdAt,value
2022-10-22T00:00:08.286Z,8.25
2022-10-22T00:02:35.509Z,6.18
2022-10-22T00:05:02.258Z,11.00
2022-10-22T00:07:29.124Z,9.90
2022-10-22T00:09:55.796Z,5.22
2022-10-22T00:12:22.594Z,6.07
2022-10-22T00:14:49.558Z,7.60
2022-10-22T00:17:17.514Z,4.40
2022-10-22T00:19:44.441Z,10.15
2022-10-22T00:22:12.124Z,10.32
2022-10-22T00:24:39.919Z,5.63
2022-10-22T00:27:09.820Z,6.00
2022-10-22T00:29:36.582Z,7.30
2022-10-22T00:32:05.103Z,6.30
2022-10-22T00:34:32.215Z,7.20
2022-10-22T00:36:59.025Z,8.25
2022-10-22T00:39:27.501Z,11.60
2022-10-22T00:41:56.299Z,7.45
2022-10-22T00:45:06.856Z,9.77
2022-10-22T00:47:41.851Z,9.45
2022-10-22T00:50:35.888Z,8.80
2022-10-22T00:53:04.652Z,6.22
2022-10-22T00:55:33.407Z,14.70
2022-10-22T00:58:01.436Z,6.57
2022-10-22T01:00:28.437Z,7.00
2022-10-22T01:02:56.043Z,8.38
2022-10-22T01:05:23.466Z,8.68
2022-10-22T01:07:52.830Z,6.72
2022-10-22T01:10:37.431Z,6.75
2022-10-22T01:13:28.401Z,9.23
2022-10-22T01:16:12.234Z,5.25
2022-10-22T01:18:49.669Z,8.18
2022-10-22T01:21:33.988Z,7.63
2022-10-22T01:24:34.563Z,8.63
2022-10-22T01:27:20.278Z,7.63
2022-10-22T01:29:52.144Z,6.93
2022-10-22T01:32:23.769Z,8.73
2022-10-22T01:35:06.923Z,11.02
2022-10-22T01:37:40.348Z,6.80
2022-10-22T01:40:09.103Z,5.30
2022-10-22T01:42:35.808Z,5.43
2022-10-22T01:45:02.515Z,10.30
2022-10-22T01:47:57.666Z,6.57
2022-10-22T01:50:53.431Z,6.80
2022-10-22T01:53:51.036Z,9.05
2022-10-22T01:56:36.298Z,6.93
2022-10-22T01:59:34.903Z,10.55
2022-10-22T02:02:15.434Z,8.30
2022-10-22T02:05:08.964Z,11.13
2022-10-22T02:07:49.642Z,4.75
2022-10-22T02:10:18.439Z,8.32
2022-10-22T02:12:50.536Z,9.10
2022-10-22T02:15:20.109Z,10.57
2022-10-22T02:17:47.731Z,7.18
2022-10-22T02:20:33.349Z,8.10
2022-10-22T02:23:01.572Z,7.53
2022-10-22T02:25:33.541Z,9.10
2022-10-22T02:28:33.972Z,5.22
2022-10-22T02:31:15.739Z,11.90
2022-10-22T02:33:48.233Z,9.50
2022-10-22T02:36:17.102Z,8.35
2022-10-22T02:38:45.850Z,8.32
2022-10-22T02:41:12.765Z,9.98
2022-10-22T02:43:43.169Z,11.57
2022-10-22T02:46:11.141Z,9.05
2022-10-22T02:48:38.031Z,8.50
2022-10-22T02:51:04.816Z,8.60
2022-10-22T02:53:31.782Z,8.88
2022-10-22T02:55:59.177Z,11.77
2022-10-22T02:58:25.953Z,9.52
2022-10-22T03:00:52.716Z,6.60
2022-10-22T03:03:19.495Z,9.00
2022-10-22T03:05:46.179Z,8.52
2022-10-22T03:08:13.391Z,12.15
2022-10-22T03:10:40.077Z,8.55
2022-10-22T03:13:06.860Z,11.00
2022-10-22T03:15:33.590Z,8.68
2022-10-22T03:18:00.361Z,11.75
2022-10-22T03:20:27.126Z,8.18
2022-10-22T03:22:54.264Z,11.70
2022-10-22T03:25:24.250Z,10.15
2022-10-22T03:27:54.521Z,10.20
2022-10-22T03:30:21.440Z,7.90
2022-10-22T03:32:48.122Z,8.57
2022-10-22T03:35:14.859Z,6.55
2022-10-22T03:37:42.336Z,7.28
2022-10-22T03:40:11.438Z,6.40
2022-10-22T03:42:38.438Z,6.05
2022-10-22T03:45:06.495Z,7.78
2022-10-22T03:47:33.226Z,6.97
2022-10-22T03:50:00.255Z,8.77
2022-10-22T03:52:27.056Z,5.85
2022-10-22T03:54:53.966Z,10.75
2022-10-22T03:57:20.740Z,5.63
2022-10-22T03:59:47.738Z,7.80
2022-10-22T04:02:14.752Z,4.82
2022-10-22T04:04:41.481Z,6.80
2022-10-22T04:07:08.852Z,7.97
2022-10-22T04:09:36.212Z,5.72
2022-10-22T04:12:05.406Z,6.32
2022-10-22T04:14:32.295Z,7.22
2022-10-22T04:16:59.046Z,5.30
2022-10-22T04:19:25.781Z,7.43
2022-10-22T04:21:52.520Z,8.23
2022-10-22T04:24:19.328Z,9.25
2022-10-22T04:26:46.090Z,9.02
2022-10-22T04:29:16.011Z,6.97
2022-10-22T04:31:43.674Z,5.43
2022-10-22T04:34:10.424Z,4.68
2022-10-22T04:36:37.184Z,5.63
2022-10-22T04:39:06.120Z,6.40
2022-10-22T04:41:38.710Z,6.65
2022-10-22T04:44:06.423Z,8.68
2022-10-22T04:46:35.366Z,7.45
2022-10-22T04:49:03.914Z,10.25
2022-10-22T04:51:31.509Z,8.35
2022-10-22T04:53:58.451Z,7.40
2022-10-22T04:56:28.923Z,9.32
2022-10-22T04:58:58.601Z,6.97
2022-10-22T05:01:44.696Z,15.77
2022-10-22T05:04:15.663Z,13.20
2022-10-22T05:06:43.095Z,6.35
2022-10-22T05:09:20.040Z,9.48
2022-10-22T05:11:50.347Z,9.65
2022-10-22T05:14:26.185Z,8.55
2022-10-22T05:16:53.372Z,8.18
2022-10-22T05:19:24.895Z,6.40
2022-10-22T05:21:58.521Z,6.30
2022-10-22T05:24:26.669Z,8.07
2022-10-22T05:26:56.349Z,11.48
2022-10-22T05:29:24.062Z,9.30
2022-10-22T05:31:50.923Z,11.88
2022-10-22T05:34:18.103Z,10.73
2022-10-22T05:36:45.172Z,9.63
2022-10-22T06:01:23.126Z,6.30
2022-10-22T06:03:53.617Z,12.57
2022-10-22T06:06:43.296Z,8.60
2022-10-22T06:09:31.051Z,12.13
2022-10-22T06:11:59.025Z,6.43
2022-10-22T06:14:26.744Z,8.25
2022-10-22T06:16:54.161Z,6.78
2022-10-22T06:19:23.496Z,6.30
2022-10-22T06:21:50.342Z,6.28
2022-10-22T06:24:17.209Z,7.05
2022-10-22T06:26:44.367Z,4.13
2022-10-22T06:29:11.509Z,9.30
2022-10-22T06:31:38.277Z,5.32
2022-10-22T06:34:09.992Z,6.60
2022-10-22T06:36:37.440Z,7.65
2022-10-22T06:39:05.544Z,3.85
2022-10-22T06:41:32.391Z,4.60
2022-10-22T06:43:59.929Z,6.30
2022-10-22T06:46:27.048Z,6.47
2022-10-22T06:48:57.231Z,7.25
2022-10-22T06:51:24.725Z,8.30
2022-10-22T06:53:51.541Z,5.63
2022-10-22T06:56:20.936Z,10.73
2022-10-22T06:58:52.628Z,5.32
2022-10-22T07:01:23.628Z,5.20
2022-10-22T07:03:51.907Z,4.47
2022-10-22T07:06:19.726Z,7.15
2022-10-22T07:08:46.720Z,5.82
2022-10-22T07:11:23.285Z,6.80
2022-10-22T07:13:51.261Z,5.72
2022-10-22T07:16:18.969Z,8.35
2022-10-22T07:18:46.504Z,8.50
2022-10-22T07:21:16.159Z,4.82
2022-10-22T07:23:43.077Z,4.65
2022-10-22T07:26:12.299Z,5.63
2022-10-22T07:28:40.919Z,8.95
2022-10-22T07:31:10.222Z,11.13
2022-10-22T07:33:37.851Z,6.72
2022-10-22T07:36:07.951Z,7.07
2022-10-22T07:38:35.364Z,8.43
2022-10-22T07:41:02.767Z,7.05
2022-10-22T07:43:29.530Z,5.72
2022-10-22T07:45:56.441Z,6.43
2022-10-22T07:48:24.075Z,7.45
2022-10-22T07:50:51.672Z,7.53
2022-10-22T07:53:18.774Z,8.00
2022-10-22T07:55:49.365Z,7.03
2022-10-22T07:58:20.467Z,9.00
2022-10-22T08:00:48.492Z,10.65
2022-10-22T08:03:16.468Z,6.00
2022-10-22T08:05:46.482Z,12.35
2022-10-22T08:08:15.861Z,5.85
2022-10-22T08:10:44.029Z,7.40
2022-10-22T08:13:11.252Z,7.85
2022-10-22T08:15:38.159Z,8.57
2022-10-22T08:18:05.572Z,7.38
2022-10-22T08:20:32.387Z,5.18
2022-10-22T08:22:59.454Z,4.65
2022-10-22T08:25:27.132Z,3.47
2022-10-22T08:27:54.027Z,4.80
2022-10-22T08:30:20.895Z,5.50
2022-10-22T08:32:49.361Z,7.38
2022-10-22T08:35:18.442Z,5.77
2022-10-22T08:37:45.642Z,6.75
2022-10-22T08:40:39.553Z,8.43
2022-10-22T08:43:21.026Z,6.65
2022-10-22T08:46:19.546Z,8.30
2022-10-22T08:48:50.138Z,4.38
2022-10-22T08:51:21.670Z,3.20
2022-10-22T08:54:21.809Z,5.85
2022-10-22T08:57:09.203Z,6.07
2022-10-22T08:59:47.053Z,7.18
2022-10-22T09:03:05.141Z,5.15
2022-10-22T09:05:53.080Z,12.20
2022-10-22T09:08:20.628Z,6.57
2022-10-22T09:10:53.457Z,3.75
2022-10-22T09:13:22.801Z,2.85
2022-10-22T09:15:57.855Z,6.32
2022-10-22T09:18:41.546Z,4.07
2022-10-22T09:21:31.371Z,4.45
2022-10-22T09:24:14.151Z,3.22
2022-10-22T09:26:41.759Z,5.75
2022-10-22T09:29:21.046Z,6.50
2022-10-22T09:31:47.955Z,10.07
2022-10-22T09:34:20.376Z,4.30
2022-10-22T09:36:47.403Z,3.13
2022-10-22T09:39:28.183Z,8.15
2022-10-22T09:41:54.924Z,5.97
2022-10-22T09:44:22.094Z,5.95
2022-10-22T09:46:49.016Z,4.82
2022-10-22T09:49:19.938Z,5.32
2022-10-22T09:51:56.726Z,5.13
2022-10-22T09:54:43.764Z,5.18
2022-10-22T09:57:14.321Z,4.82
2022-10-22T09:59:44.907Z,7.65
2022-10-22T10:02:42.513Z,6.68
2022-10-22T10:05:20.964Z,5.18
2022-10-22T10:07:48.076Z,4.72
2022-10-22T10:10:33.590Z,4.05
2022-10-22T10:13:17.767Z,6.88
2022-10-22T10:16:07.216Z,4.45
2022-10-22T10:19:03.853Z,3.65
2022-10-22T10:21:44.413Z,7.68
2022-10-22T10:24:27.085Z,4.45
2022-10-22T10:27:19.830Z,4.63
2022-10-22T10:30:00.107Z,7.32
2022-10-22T10:32:50.463Z,5.53
2022-10-22T10:35:31.078Z,4.50
2022-10-22T10:38:17.170Z,5.05
2022-10-22T10:40:57.607Z,2.95
2022-10-22T10:43:45.424Z,4.68
2022-10-22T10:46:51.225Z,5.60
2022-10-22T10:49:31.382Z,3.53
2022-10-22T10:52:22.281Z,3.50
2022-10-22T10:55:15.708Z,12.60
2022-10-22T10:58:17.091Z,5.25
2022-10-22T11:01:03.399Z,5.35
2022-10-22T11:04:04.128Z,2.90
2022-10-22T11:06:33.340Z,5.57
2022-10-22T11:09:17.074Z,6.18
2022-10-22T11:12:23.436Z,6.00
2022-10-22T11:15:28.366Z,5.43
2022-10-22T11:18:04.423Z,3.13
2022-10-22T11:21:08.411Z,5.28
2022-10-22T11:23:49.200Z,4.43
2022-10-22T11:26:30.935Z,4.90
2022-10-22T11:31:26.879Z,3.00
2022-10-22T11:34:32.566Z,4.30
2022-10-22T11:37:01.583Z,4.85
2022-10-22T11:40:23.588Z,6.00
2022-10-22T11:42:56.948Z,3.47
2022-10-22T11:45:23.568Z,6.25
2022-10-22T11:48:09.666Z,3.85
2022-10-22T11:50:47.395Z,4.78
2022-10-22T11:53:14.023Z,3.03
2022-10-22T11:55:47.981Z,3.13
2022-10-22T11:58:33.476Z,3.72
2022-10-22T12:01:09.280Z,3.05
2022-10-22T12:03:43.837Z,2.20
2022-10-22T12:06:13.233Z,6.30
2022-10-22T12:08:49.025Z,3.75
2022-10-22T12:11:26.305Z,5.93
2022-10-22T12:14:16.571Z,3.47
2022-10-22T12:16:57.267Z,4.70
2022-10-22T12:19:29.421Z,5.43
2022-10-22T12:21:59.954Z,3.85
2022-10-22T12:24:32.824Z,4.60
2022-10-22T12:26:59.604Z,3.85
2022-10-22T12:29:27.617Z,3.35
2022-10-22T12:31:55.870Z,4.65
2022-10-22T12:34:25.381Z,3.83
2022-10-22T12:36:54.021Z,2.65
2022-10-22T12:39:26.520Z,3.30
2022-10-22T12:41:55.002Z,4.47
2022-10-22T12:44:21.724Z,6.30
2022-10-22T12:46:53.091Z,6.57
2022-10-22T12:49:46.255Z,2.83
2022-10-22T12:52:18.711Z,6.28
2022-10-22T12:54:47.938Z,3.05
2022-10-22T12:57:17.839Z,1.83
2022-10-22T12:59:51.648Z,8.50
2022-10-22T13:02:26.529Z,2.13
2022-10-22T13:05:24.893Z,1.85
2022-10-22T13:08:10.455Z,4.55
2022-10-22T13:10:41.107Z,6.38
2022-10-22T13:13:36.880Z,2.28
2022-10-22T13:16:27.649Z,4.65
2022-10-22T13:18:54.740Z,3.20
2022-10-22T13:21:36.319Z,1.77
2022-10-22T13:26:53.772Z,4.00
2022-10-22T13:29:23.178Z,2.92
2022-10-22T13:31:54.096Z,4.78
2022-10-22T13:34:24.321Z,6.60
2022-10-22T13:36:51.777Z,3.15
2022-10-22T13:39:21.868Z,2.40
2022-10-22T13:41:52.380Z,2.85
2022-10-22T13:44:19.877Z,5.68
2022-10-22T13:46:50.138Z,3.10
2022-10-22T13:49:20.388Z,2.90
2022-10-22T13:51:47.358Z,1.88
2022-10-22T13:54:19.372Z,7.65
2022-10-22T13:56:46.627Z,2.58
2022-10-22T13:59:16.247Z,4.80
2022-10-22T14:01:45.666Z,3.92
2022-10-22T14:04:15.191Z,2.10
2022-10-22T14:06:41.944Z,2.67
2022-10-22T14:09:15.254Z,2.13
2022-10-22T14:11:43.039Z,5.75
2022-10-22T14:14:13.931Z,3.53
2022-10-22T14:16:40.651Z,3.35
2022-10-22T14:19:12.744Z,2.03
2022-10-22T14:21:39.697Z,3.33
2022-10-22T14:24:08.425Z,4.72
2022-10-22T14:26:37.600Z,4.97
2022-10-22T14:29:12.053Z,3.17
2022-10-22T14:31:41.966Z,3.72
2022-10-22T14:34:11.946Z,4.75
2022-10-22T14:36:38.955Z,13.13
2022-10-22T14:39:05.691Z,3.63
2022-10-22T14:41:32.476Z,4.50
2022-10-22T14:43:59.765Z,3.95
2022-10-22T14:46:26.647Z,2.75
2022-10-22T14:48:53.376Z,2.03
2022-10-22T14:51:21.500Z,2.22
2022-10-22T14:53:48.848Z,3.53
2022-10-22T14:56:21.256Z,4.25
2022-10-22T14:58:48.840Z,2.38
2022-10-22T15:01:16.004Z,3.05
2022-10-22T15:03:43.021Z,1.75
2022-10-22T15:06:09.738Z,1.65
2022-10-22T15:08:36.543Z,3.13
2022-10-22T15:11:11.188Z,3.10
2022-10-22T15:13:39.268Z,2.75
2022-10-22T15:16:08.641Z,3.22
2022-10-22T15:18:35.818Z,3.83
2022-10-22T15:21:11.640Z,2.53
2022-10-22T15:23:39.184Z,1.88
2022-10-22T15:26:11.120Z,4.07
2022-10-22T15:28:39.352Z,2.38
2022-10-22T15:31:07.581Z,3.85
2022-10-22T15:33:34.532Z,1.10
2022-10-22T15:36:14.491Z,4.50
2022-10-22T15:38:41.348Z,2.45
2022-10-22T15:41:12.050Z,1.52
2022-10-22T15:43:38.785Z,3.47
2022-10-22T15:46:19.268Z,3.80
2022-10-22T15:48:46.454Z,3.17
2022-10-22T15:51:18.782Z,4.53
2022-10-22T15:53:56.935Z,2.90
2022-10-22T15:56:25.029Z,1.58
2022-10-22T15:58:57.839Z,1.92
2022-10-22T16:01:26.496Z,1.90
2022-10-22T16:03:59.938Z,3.13
2022-10-22T16:06:27.484Z,4.90
2022-10-22T16:08:54.802Z,3.40
2022-10-22T16:11:21.644Z,2.28
2022-10-22T16:13:48.354Z,5.07
2022-10-22T16:16:15.086Z,4.75
2022-10-22T16:18:41.892Z,3.47
2022-10-22T16:21:14.305Z,2.83
2022-10-22T16:23:44.756Z,1.80
2022-10-22T16:26:12.827Z,4.85
2022-10-22T16:28:39.807Z,2.28
2022-10-22T16:31:09.812Z,2.63
2022-10-22T16:33:41.724Z,4.13
2022-10-22T16:36:17.849Z,4.40
2022-10-22T16:38:45.871Z,4.05
2022-10-22T16:41:21.655Z,1.70
2022-10-22T16:43:51.465Z,4.75
2022-10-22T16:46:20.975Z,4.13
2022-10-22T16:48:52.713Z,2.78
2022-10-22T16:51:26.233Z,3.92
2022-10-22T16:53:54.794Z,3.88
2022-10-22T16:56:22.239Z,4.15
2022-10-22T16:58:52.018Z,6.25
2022-10-22T17:01:21.549Z,3.97
2022-10-22T17:03:48.486Z,4.60
2022-10-22T17:06:15.424Z,5.40
2022-10-22T17:08:42.698Z,7.50
2022-10-22T17:11:19.102Z,3.53
2022-10-22T17:13:48.916Z,2.25
2022-10-22T17:16:18.964Z,1.95
2022-10-22T17:21:19.361Z,9.95
2022-10-22T17:23:47.245Z,3.78
2022-10-22T17:26:21.503Z,4.35
2022-10-22T17:28:49.337Z,4.80
2022-10-22T17:31:24.368Z,7.43
2022-10-22T17:33:54.399Z,2.97
2022-10-22T17:36:22.959Z,5.10
2022-10-22T17:38:56.177Z,3.60
2022-10-22T17:41:30.356Z,5.15
2022-10-22T17:43:59.484Z,6.28
2022-10-22T17:46:29.184Z,6.22
2022-10-22T17:48:59.130Z,4.38
2022-10-22T17:51:27.902Z,10.30
2022-10-22T17:53:55.349Z,10.77
2022-10-22T17:56:26.766Z,7.93
2022-10-22T17:58:54.215Z,6.43
2022-10-22T18:01:33.766Z,6.25
2022-10-22T18:04:08.813Z,7.47
2022-10-22T18:06:36.620Z,5.47
2022-10-22T18:09:09.577Z,6.47
2022-10-22T18:11:38.773Z,7.13
2022-10-22T18:14:05.723Z,4.70
2022-10-22T18:16:32.519Z,6.90
2022-10-22T18:18:59.284Z,7.93
2022-10-22T18:21:28.620Z,8.88
2022-10-22T18:23:57.461Z,8.45
2022-10-22T18:26:26.916Z,7.25
2022-10-22T18:28:54.926Z,5.10
2022-10-22T18:31:24.368Z,4.22
2022-10-22T18:36:26.900Z,4.13
2022-10-22T18:39:00.108Z,6.55
2022-10-22T18:41:28.788Z,8.27
2022-10-22T18:44:01.899Z,7.47
2022-10-22T18:46:30.020Z,7.93
2022-10-22T18:48:58.273Z,6.95
2022-10-22T18:51:30.049Z,7.18
2022-10-22T18:54:11.225Z,5.63
2022-10-22T18:56:44.776Z,8.18
2022-10-22T18:59:20.673Z,6.65
2022-10-22T19:01:48.260Z,6.78
2022-10-22T19:04:15.472Z,6.63
2022-10-22T19:06:45.365Z,9.27
2022-10-22T19:09:14.803Z,10.52
2022-10-22T19:11:42.877Z,8.45
2022-10-22T19:14:09.552Z,11.50
2022-10-22T19:16:37.548Z,31.17
2022-10-22T19:19:06.903Z,32.13
2022-10-22T19:21:34.123Z,28.92
2022-10-22T19:24:01.995Z,43.75
2022-10-22T19:26:30.240Z,33.05
2022-10-22T19:28:58.544Z,20.35
2022-10-22T19:31:27.059Z,25.00
2022-10-22T19:33:57.075Z,11.48
2022-10-22T19:36:27.406Z,16.48
2022-10-22T19:38:55.050Z,8.82
2022-10-22T19:41:23.960Z,10.45
2022-10-22T19:43:53.085Z,14.45
2022-10-22T19:46:21.792Z,15.07
2022-10-22T19:48:49.670Z,9.80
2022-10-22T19:51:23.472Z,11.95
2022-10-22T19:53:51.064Z,11.45
2022-10-22T19:56:22.091Z,10.45
2022-10-22T19:58:48.825Z,9.05
2022-10-22T20:01:18.285Z,12.68
2022-10-22T20:03:46.898Z,11.55
2022-10-22T20:06:15.897Z,10.60
2022-10-22T20:08:42.964Z,9.60
2022-10-22T20:11:22.458Z,10.43
2022-10-22T20:13:52.188Z,9.02
2022-10-22T20:16:24.207Z,9.95
2022-10-22T20:18:52.667Z,9.07
2022-10-22T20:21:20.747Z,8.93
2022-10-22T20:23:51.784Z,10.15
2022-10-22T20:26:18.911Z,7.72
2022-10-22T20:28:45.591Z,9.77
2022-10-22T20:31:15.620Z,9.77
2022-10-22T20:33:42.786Z,8.30
2022-10-22T20:36:16.980Z,10.18
2022-10-22T20:38:47.949Z,10.90
2022-10-22T20:41:20.429Z,8.80
2022-10-22T20:43:49.857Z,8.98
2022-10-22T20:46:26.750Z,8.70
2022-10-22T20:48:58.940Z,8.40
2022-10-22T20:51:25.826Z,9.25
2022-10-22T20:53:52.561Z,8.80
2022-10-22T20:56:19.950Z,8.25
2022-10-22T20:58:53.614Z,10.10
2022-10-22T21:01:24.184Z,10.18
2022-10-22T21:03:52.519Z,7.57
2022-10-22T21:06:22.914Z,11.15
2022-10-22T21:08:51.385Z,8.63
2022-10-22T21:11:19.854Z,8.70
2022-10-22T21:13:46.962Z,11.27
2022-10-22T21:16:17.494Z,8.30
2022-10-22T21:18:45.990Z,7.05
2022-10-22T21:21:19.850Z,9.68
2022-10-22T21:23:46.975Z,11.27
2022-10-22T21:26:13.663Z,8.65
2022-10-22T21:28:40.367Z,11.57
2022-10-22T21:31:10.120Z,11.10
2022-10-22T21:33:38.984Z,10.30
2022-10-22T21:36:08.868Z,7.45
2022-10-22T21:38:37.528Z,12.30
2022-10-22T21:41:10.451Z,8.45
2022-10-22T21:43:38.671Z,6.53
2022-10-22T21:46:13.976Z,7.65
2022-10-22T21:48:40.973Z,7.60
2022-10-22T21:51:11.892Z,7.65
2022-10-22T21:53:39.290Z,12.25
2022-10-22T21:56:07.642Z,6.88
2022-10-22T21:58:35.636Z,9.68
2022-10-22T22:01:02.634Z,10.43
2022-10-22T22:03:29.469Z,5.85
2022-10-22T22:06:06.135Z,9.02
2022-10-22T22:08:34.039Z,6.57
2022-10-22T22:11:02.524Z,13.68
2022-10-22T22:13:29.612Z,7.38
2022-10-22T22:16:05.408Z,5.60
2022-10-22T22:18:33.482Z,10.15
2022-10-22T22:21:03.893Z,11.65
2022-10-22T22:23:30.831Z,8.15
2022-10-22T22:26:01.842Z,11.05
2022-10-22T22:28:32.197Z,9.48
2022-10-22T22:30:58.954Z,9.63
2022-10-22T22:33:26.331Z,11.65
2022-10-22T22:35:57.487Z,9.45
2022-10-22T22:38:24.195Z,7.67
2022-10-22T22:40:50.955Z,9.93
2022-10-22T22:43:17.665Z,9.02
2022-10-22T22:45:44.384Z,10.05
2022-10-22T22:48:11.101Z,10.45
2022-10-22T22:50:37.820Z,8.38
2022-10-22T22:53:04.583Z,10.25
2022-10-22T22:55:31.917Z,10.05
2022-10-22T22:57:58.928Z,10.30
2022-10-22T23:00:25.766Z,16.20
2022-10-22T23:02:56.213Z,11.43
2022-10-22T23:05:22.907Z,11.88
2022-10-22T23:07:49.599Z,12.18
2022-10-22T23:10:16.377Z,10.85
2022-10-22T23:12:43.315Z,11.65
2022-10-22T23:15:10.947Z,11.77
2022-10-22T23:17:38.411Z,11.02
2022-10-22T23:20:06.165Z,9.73
2022-10-22T23:22:32.878Z,6.22
2022-10-22T23:24:59.561Z,9.30
2022-10-22T23:27:26.329Z,11.80
2022-10-22T23:29:53.020Z,11.60
2022-10-22T23:32:19.735Z,8.00
2022-10-22T23:34:46.481Z,8.00
2022-10-22T23:37:13.214Z,11.63
2022-10-22T23:39:40.010Z,9.70
2022-10-22T23:42:06.696Z,10.32
2022-10-22T23:44:33.406Z,13.07
2022-10-22T23:47:00.795Z,14.88
2022-10-22T23:49:27.584Z,11.80
2022-10-22T23:51:54.285Z,8.85
2022-10-22T23:54:20.984Z,11.10
2022-10-22T23:56:47.872Z,9.00
